createdAt,value
2022-12-19T00:04:51.311Z,-2.1
2022-12-19T00:09:49.566Z,-2.1
2022-12-19T00:14:48.034Z,-2.1
2022-12-19T00:19:46.172Z,-2.1
2022-12-19T00:24:44.460Z,-2.1
2022-12-19T00:29:42.820Z,-2.2
2022-12-19T00:34:41.202Z,-2.2
2022-12-19T00:39:39.474Z,-2.2
2022-12-19T00:44:37.666Z,-2.2
2022-12-19T00:49:35.891Z,-2.2
2022-12-19T00:54:34.225Z,-2.2
2022-12-19T00:59:32.296Z,-2.2
2022-12-19T01:04:32.559Z,-2.1
2022-12-19T01:09:28.802Z,-2
2022-12-19T01:14:27.318Z,-1.9
2022-12-19T01:19:25.591Z,-1.9
2022-12-19T01:24:23.871Z,-1.8
2022-12-19T01:29:22.134Z,-1.7
2022-12-19T01:34:20.313Z,-1.7
2022-12-19T01:39:18.706Z,-1.6
2022-12-19T01:44:17.054Z,-1.6
2022-12-19T01:49:15.475Z,-1.6
2022-12-19T01:54:13.744Z,-1.6
2022-12-19T01:59:11.681Z,-1.7
2022-12-19T02:04:09.959Z,-1.6
2022-12-19T02:09:08.195Z,-1.6
2022-12-19T02:14:06.570Z,-1.6
2022-12-19T02:19:04.711Z,-1.8
2022-12-19T02:24:02.929Z,-1.5
2022-12-19T02:29:01.222Z,-1.6
2022-12-19T02:33:59.669Z,-1.6
2022-12-19T02:38:57.842Z,-1.6
2022-12-19T02:43:58.108Z,-1.6
2022-12-19T02:48:54.373Z,-1.5
2022-12-19T02:53:52.656Z,-1.5
2022-12-19T02:58:50.860Z,-1.5
2022-12-19T03:03:49.125Z,-1.5
2022-12-19T03:08:47.356Z,-1.5
2022-12-19T03:13:45.739Z,-1.5
2022-12-19T03:18:43.824Z,-1.5
2022-12-19T03:23:42.071Z,-1.6
2022-12-19T03:28:40.252Z,-1.5
2022-12-19T03:33:38.649Z,-1.5
2022-12-19T03:38:36.915Z,-1.5
2022-12-19T03:43:35.267Z,-1.5
2022-12-19T03:48:33.554Z,-1.5
2022-12-19T03:53:31.727Z,-1.5
2022-12-19T03:58:29.596Z,-1.6
2022-12-19T04:03:27.893Z,-1.6
2022-12-19T04:08:26.133Z,-1.7
2022-12-19T04:13:24.334Z,-1.8
2022-12-19T04:18:22.297Z,-1.9
2022-12-19T04:23:20.461Z,-1.9
2022-12-19T04:28:18.565Z,-1.9
2022-12-19T04:33:16.985Z,-1.8
2022-12-19T04:38:15.282Z,-1.9
2022-12-19T04:43:13.638Z,-2
2022-12-19T04:48:11.821Z,-2.2
2022-12-19T04:53:10.185Z,-2.4
2022-12-19T04:58:08.212Z,-2.5
2022-12-19T05:03:06.347Z,-2.7
2022-12-19T05:08:04.290Z,-2.8
2022-12-19T05:13:02.535Z,-3
2022-12-19T05:18:00.546Z,-3.2
2022-12-19T05:23:00.805Z,-3.4
2022-12-19T05:27:56.541Z,-3.7
2022-12-19T05:32:54.855Z,-3.9
2022-12-19T05:37:52.880Z,-4
2022-12-19T05:42:51.001Z,-4
2022-12-19T05:47:49.183Z,-4
2022-12-19T05:52:47.443Z,-4.1
2022-12-19T05:57:45.385Z,-4
2022-12-19T06:02:43.817Z,-4
2022-12-19T06:07:41.948Z,-4.1
2022-12-19T06:12:40.376Z,-3.9
2022-12-19T06:17:38.721Z,-3.8
2022-12-19T06:22:37.037Z,-3.5
2022-12-19T06:27:35.436Z,-3.3
2022-12-19T06:32:37.859Z,-3.1
2022-12-19T06:37:32.450Z,-2.8
2022-12-19T06:42:30.899Z,-2.6
2022-12-19T06:47:29.368Z,-2.1
2022-12-19T06:52:28.400Z,-1.3
2022-12-19T06:57:27.157Z,-0.6
2022-12-19T07:02:26.559Z,0.4
2022-12-19T07:07:25.180Z,1
2022-12-19T07:12:23.972Z,1.5
2022-12-19T07:17:22.834Z,2.2
2022-12-19T07:22:21.388Z,2.6
2022-12-19T07:27:19.648Z,2.8
2022-12-19T07:32:18.456Z,3.3
2022-12-19T07:37:16.734Z,3.5
2022-12-19T07:42:15.123Z,3.6
2022-12-19T07:47:13.335Z,3.7
2022-12-19T07:52:11.865Z,4
2022-12-19T07:57:10.621Z,4.5
2022-12-19T08:02:09.227Z,4.7
2022-12-19T08:07:07.740Z,5.1
2022-12-19T08:12:05.811Z,4.9
2022-12-19T08:17:20.029Z,5
2022-12-19T08:22:02.611Z,5.5
2022-12-19T08:27:01.216Z,5.8
2022-12-19T08:32:00.556Z,6.6
2022-12-19T08:36:59.416Z,6.9
2022-12-19T08:41:58.227Z,7.5
2022-12-19T08:46:56.715Z,7.8
2022-12-19T08:51:55.163Z,7.8
2022-12-19T08:56:53.659Z,8.5
2022-12-19T09:01:52.649Z,8.8
2022-12-19T09:06:51.307Z,9.1
2022-12-19T09:11:49.763Z,9.1
2022-12-19T09:16:47.997Z,9
2022-12-19T09:21:46.140Z,8.6
2022-12-19T09:26:44.191Z,8.5
2022-12-19T09:31:42.634Z,8.6
2022-12-19T09:36:40.934Z,8.4
2022-12-19T09:41:39.206Z,8.5
2022-12-19T09:46:37.526Z,8.7
2022-12-19T09:51:36.454Z,9.5
2022-12-19T09:56:39.450Z,11.5
2022-12-19T10:01:35.750Z,12.5
2022-12-19T10:06:57.285Z,12.4
2022-12-19T10:12:41.976Z,12
2022-12-19T10:16:30.512Z,11.6
2022-12-19T10:21:51.163Z,12
2022-12-19T10:26:30.146Z,12.3
2022-12-19T10:31:26.222Z,12.5
2022-12-19T10:36:36.441Z,13
2022-12-19T10:41:22.777Z,12.5
2022-12-19T10:46:21.393Z,13.1
2022-12-19T10:51:21.400Z,14.6
2022-12-19T10:56:19.383Z,13.7
2022-12-19T11:01:17.013Z,12.9
2022-12-19T11:06:15.101Z,12.9
2022-12-19T11:12:21.535Z,14.3
2022-12-19T11:18:40.779Z,13.6
2022-12-19T11:27:50.575Z,12.9
2022-12-19T11:30:24.235Z,12.5
2022-12-19T11:36:03.258Z,11.7
2022-12-19T11:41:02.227Z,12.8
2022-12-19T11:46:01.640Z,12.7
2022-12-19T11:50:58.993Z,11.6
2022-12-19T11:55:56.182Z,10.9
2022-12-19T12:00:54.174Z,10.6
2022-12-19T12:05:52.138Z,10
2022-12-19T12:12:02.002Z,10.2
2022-12-19T12:20:04.421Z,10.6
2022-12-19T12:29:14.548Z,10.3
2022-12-19T12:31:34.070Z,9.7
2022-12-19T12:31:37.322Z,9.2
2022-12-19T12:40:39.027Z,8.2
2022-12-19T12:45:37.263Z,7.9
2022-12-19T12:50:35.116Z,7.5
2022-12-19T12:55:33.113Z,7.1
2022-12-19T13:00:31.118Z,6.9
2022-12-19T13:05:29.264Z,6.7
2022-12-19T13:10:27.375Z,6.3
2022-12-19T13:15:25.051Z,5.8
2022-12-19T13:20:22.944Z,5.3
2022-12-19T13:25:20.657Z,4.7
2022-12-19T13:30:18.995Z,4.6
2022-12-19T13:36:03.811Z,4.6
2022-12-19T13:40:18.642Z,4.3
2022-12-19T13:45:13.382Z,4.1
2022-12-19T13:50:11.410Z,3.7
2022-12-19T13:55:09.569Z,3.4
2022-12-19T14:00:07.550Z,3.3
2022-12-19T14:05:05.571Z,3
2022-12-19T14:11:26.347Z,2.9
2022-12-19T14:15:12.275Z,2.8
2022-12-19T14:20:06.721Z,2.7
2022-12-19T14:25:01.300Z,2.5
2022-12-19T14:30:27.099Z,2.3
2022-12-19T14:36:05.612Z,2.3
2022-12-19T14:39:51.999Z,2.2
2022-12-19T14:51:00.108Z,2
2022-12-19T14:52:26.053Z,2
2022-12-19T14:59:44.241Z,1.8
2022-12-19T15:04:49.814Z,1.7
2022-12-19T15:11:01.186Z,1.3
2022-12-19T15:14:49.931Z,1
2022-12-19T15:19:36.317Z,1
2022-12-19T15:24:34.339Z,0.7
2022-12-19T15:29:32.481Z,0.6
2022-12-19T15:34:36.119Z,0.3
2022-12-19T15:39:28.534Z,-0.2
2022-12-19T15:44:26.229Z,-0.8
2022-12-19T15:49:24.062Z,-1.3
2022-12-19T15:54:51.506Z,-1.6
2022-12-19T15:59:20.177Z,-1.9
2022-12-19T16:04:18.316Z,-2.2
2022-12-19T16:09:16.159Z,-2.5
2022-12-19T16:14:14.157Z,-2.8
2022-12-19T16:19:11.877Z,-2.9
2022-12-19T16:24:09.796Z,-3
2022-12-19T16:29:08.111Z,-2.8
2022-12-19T16:34:06.449Z,-2.5
2022-12-19T16:39:04.885Z,-2.3
2022-12-19T16:44:03.226Z,-2.2
2022-12-19T16:49:01.571Z,-2.2
2022-12-19T16:53:59.856Z,-2.2
2022-12-19T16:58:58.189Z,-2.2
2022-12-19T17:03:56.494Z,-2.2
2022-12-19T17:08:54.594Z,-2.4
2022-12-19T17:13:52.661Z,-2.5
2022-12-19T17:18:50.602Z,-2.6
2022-12-19T17:23:48.812Z,-2.8
2022-12-19T17:28:46.904Z,-2.9
2022-12-19T17:33:44.931Z,-3.1
2022-12-19T17:38:43.012Z,-3.2
2022-12-19T17:43:41.381Z,-3.2
2022-12-19T17:48:39.518Z,-3.2
2022-12-19T17:53:37.850Z,-3.1
2022-12-19T17:58:36.206Z,-3.2
2022-12-19T18:03:34.644Z,-3.1
2022-12-19T18:08:32.621Z,-3.3
2022-12-19T18:13:30.814Z,-3.4
2022-12-19T18:18:29.018Z,-3.2
2022-12-19T18:23:27.237Z,-3.2
2022-12-19T18:28:25.462Z,-3.1
2022-12-19T18:33:23.809Z,-3.3
2022-12-19T18:38:22.009Z,-3.4
2022-12-19T18:43:20.399Z,-3.5
2022-12-19T18:48:18.729Z,-3.6
2022-12-19T18:53:16.791Z,-3.7
2022-12-19T18:58:15.087Z,-3.6
2022-12-19T19:03:13.430Z,-3.6
2022-12-19T19:08:11.589Z,-3.6
2022-12-19T19:13:10.297Z,-3.6
2022-12-19T19:18:07.976Z,-3.7
2022-12-19T19:23:05.981Z,-3.8
2022-12-19T19:28:04.001Z,-3.7
2022-12-19T19:33:02.036Z,-3.6
2022-12-19T19:38:00.815Z,-3.6
2022-12-19T19:42:58.996Z,-3.6
2022-12-19T19:47:57.453Z,-3.6
2022-12-19T19:52:56.049Z,-3.7
2022-12-19T19:57:54.465Z,-3.7
2022-12-19T20:02:53.013Z,-3.7
2022-12-19T20:07:51.213Z,-3.5
2022-12-19T20:12:49.570Z,-3.4
2022-12-19T20:17:47.709Z,-3.5
2022-12-19T20:22:45.967Z,-3.5
2022-12-19T20:27:44.093Z,-3.6
2022-12-19T20:32:42.242Z,-3.8
2022-12-19T20:37:40.315Z,-4
2022-12-19T20:42:38.152Z,-4
2022-12-19T20:47:36.216Z,-3.9
2022-12-19T20:52:34.223Z,-3.8
2022-12-19T20:57:32.393Z,-3.8
2022-12-19T21:02:40.970Z,-3.8
2022-12-19T21:07:28.708Z,-3.8
2022-12-19T21:12:26.704Z,-3.8
2022-12-19T21:17:25.045Z,-3.8
2022-12-19T21:22:23.229Z,-3.9
2022-12-19T21:27:21.458Z,-4
2022-12-19T21:32:19.584Z,-4.1
2022-12-19T21:37:17.901Z,-4.8
2022-12-19T21:42:16.043Z,-4.2
2022-12-19T21:47:14.367Z,-4.3
2022-12-19T21:52:12.355Z,-4.6
2022-12-19T21:57:10.517Z,-4.7
2022-12-19T22:02:09.165Z,-4.9
2022-12-19T22:02:25.592Z,-4.9
2022-12-19T22:07:20.758Z,-4.9
2022-12-19T22:12:18.935Z,-4.7
2022-12-19T22:17:17.335Z,-4.5
2022-12-19T22:22:15.650Z,-4.3
2022-12-19T22:27:13.915Z,-4.3
2022-12-19T22:32:12.038Z,-4.5
2022-12-19T22:37:10.108Z,-4.6
2022-12-19T22:42:08.010Z,-4.7
2022-12-19T22:47:06.083Z,-4.8
2022-12-19T22:52:04.368Z,-4.9
2022-12-19T22:57:02.447Z,-4.9
2022-12-19T23:02:01.010Z,-4.6
2022-12-19T23:06:59.169Z,-4.2
2022-12-19T23:11:57.697Z,-4.1
2022-12-19T23:16:56.017Z,-3.8
2022-12-19T23:21:54.477Z,-3.5
2022-12-19T23:26:52.933Z,-3.2
2022-12-19T23:31:51.403Z,-3.2
2022-12-19T23:41:47.603Z,-3.5
2022-12-19T23:46:45.465Z,-3.8
2022-12-19T23:51:43.296Z,-4.1
2022-12-19T23:56:41.210Z,-4.3
